sensor_id;sensor_type;location;lat;lon;timestamp;temperature;humidity
58447;DHT22;44240;51.840;7.258;2023-03-13T00:03:46;21.50;42.90
58447;DHT22;44240;51.840;7.258;2023-03-13T00:06:12;21.50;42.90
58447;DHT22;44240;51.840;7.258;2023-03-13T00:08:38;21.50;42.90
58447;DHT22;44240;51.840;7.258;2023-03-13T00:11:05;21.50;42.90
58447;DHT22;44240;51.840;7.258;2023-03-13T00:13:31;21.50;42.80
58447;DHT22;44240;51.840;7.258;2023-03-13T00:16:08;21.50;42.90
58447;DHT22;44240;51.840;7.258;2023-03-13T00:18:35;21.50;42.90
58447;DHT22;44240;51.840;7.258;2023-03-13T00:21:06;21.50;42.90
58447;DHT22;44240;51.840;7.258;2023-03-13T00:23:34;21.50;42.90
58447;DHT22;44240;51.840;7.258;2023-03-13T00:26:02;21.50;42.90
58447;DHT22;44240;51.840;7.258;2023-03-13T00:28:29;21.50;42.90
58447;DHT22;44240;51.840;7.258;2023-03-13T00:31:04;21.50;42.90
58447;DHT22;44240;51.840;7.258;2023-03-13T00:33:35;21.50;42.90
58447;DHT22;44240;51.840;7.258;2023-03-13T00:36:02;21.50;42.90
58447;DHT22;44240;51.840;7.258;2023-03-13T00:38:29;21.50;42.90
58447;DHT22;44240;51.840;7.258;2023-03-13T00:41:02;21.50;42.90
58447;DHT22;44240;51.840;7.258;2023-03-13T00:43:28;21.50;42.90
58447;DHT22;44240;51.840;7.258;2023-03-13T00:45:54;21.50;42.90
58447;DHT22;44240;51.840;7.258;2023-03-13T00:48:20;21.50;42.90
58447;DHT22;44240;51.840;7.258;2023-03-13T00:50:46;21.50;43.90
58447;DHT22;44240;51.840;7.258;2023-03-13T00:53:12;21.50;42.90
58447;DHT22;44240;51.840;7.258;2023-03-13T00:55:37;21.50;42.80
58447;DHT22;44240;51.840;7.258;2023-03-13T00:58:03;21.50;42.90
58447;DHT22;44240;51.840;7.258;2023-03-13T01:00:28;21.50;42.80
58447;DHT22;44240;51.840;7.258;2023-03-13T01:02:54;21.50;42.80
58447;DHT22;44240;51.840;7.258;2023-03-13T01:05:19;21.50;42.90
58447;DHT22;44240;51.840;7.258;2023-03-13T01:07:45;21.50;42.80
58447;DHT22;44240;51.840;7.258;2023-03-13T01:10:10;21.50;42.80
58447;DHT22;44240;51.840;7.258;2023-03-13T01:12:36;21.50;42.80
58447;DHT22;44240;51.840;7.258;2023-03-13T01:15:01;21.50;42.80
58447;DHT22;44240;51.840;7.258;2023-03-13T01:17:27;21.50;42.80
58447;DHT22;44240;51.840;7.258;2023-03-13T01:19:56;21.50;42.90
58447;DHT22;44240;51.840;7.258;2023-03-13T01:22:21;21.50;42.80
58447;DHT22;44240;51.840;7.258;2023-03-13T01:24:47;21.50;42.80
58447;DHT22;44240;51.840;7.258;2023-03-13T01:27:17;21.50;42.80
58447;DHT22;44240;51.840;7.258;2023-03-13T01:29:43;21.50;42.80
58447;DHT22;44240;51.840;7.258;2023-03-13T01:32:09;21.50;42.80
58447;DHT22;44240;51.840;7.258;2023-03-13T01:34:34;21.50;42.90
58447;DHT22;44240;51.840;7.258;2023-03-13T01:37:00;21.50;42.80
58447;DHT22;44240;51.840;7.258;2023-03-13T01:39:26;21.50;42.90
58447;DHT22;44240;51.840;7.258;2023-03-13T01:41:51;21.50;42.90
58447;DHT22;44240;51.840;7.258;2023-03-13T01:44:24;21.50;42.90
58447;DHT22;44240;51.840;7.258;2023-03-13T01:46:51;21.50;42.90
58447;DHT22;44240;51.840;7.258;2023-03-13T01:49:28;21.50;42.90
58447;DHT22;44240;51.840;7.258;2023-03-13T01:52:00;21.50;42.90
58447;DHT22;44240;51.840;7.258;2023-03-13T01:57:23;21.50;42.90
58447;DHT22;44240;51.840;7.258;2023-03-13T01:59:58;21.50;42.80
58447;DHT22;44240;51.840;7.258;2023-03-13T02:02:25;21.50;42.90
58447;DHT22;44240;51.840;7.258;2023-03-13T02:04:54;21.50;42.90
58447;DHT22;44240;51.840;7.258;2023-03-13T02:07:27;21.50;42.90
58447;DHT22;44240;51.840;7.258;2023-03-13T02:09:55;21.50;42.90
58447;DHT22;44240;51.840;7.258;2023-03-13T02:12:33;21.50;42.90
58447;DHT22;44240;51.840;7.258;2023-03-13T02:15:08;21.50;42.90
58447;DHT22;44240;51.840;7.258;2023-03-13T02:17:34;21.50;42.90
58447;DHT22;44240;51.840;7.258;2023-03-13T02:20:00;21.50;42.90
58447;DHT22;44240;51.840;7.258;2023-03-13T02:22:39;21.40;42.90
58447;DHT22;44240;51.840;7.258;2023-03-13T02:27:54;21.40;42.80
58447;DHT22;44240;51.840;7.258;2023-03-13T02:30:21;21.40;42.90
58447;DHT22;44240;51.840;7.258;2023-03-13T02:32:47;21.40;42.80
58447;DHT22;44240;51.840;7.258;2023-03-13T02:35:15;21.40;42.90
58447;DHT22;44240;51.840;7.258;2023-03-13T02:37:43;21.40;42.90
58447;DHT22;44240;51.840;7.258;2023-03-13T02:40:14;21.40;42.80
58447;DHT22;44240;51.840;7.258;2023-03-13T02:42:42;21.50;42.90
58447;DHT22;44240;51.840;7.258;2023-03-13T02:45:12;21.40;42.90
58447;DHT22;44240;51.840;7.258;2023-03-13T02:47:38;21.40;42.80
58447;DHT22;44240;51.840;7.258;2023-03-13T02:50:03;21.50;42.90
58447;DHT22;44240;51.840;7.258;2023-03-13T02:52:32;21.50;42.90
58447;DHT22;44240;51.840;7.258;2023-03-13T02:55:05;21.50;42.90
58447;DHT22;44240;51.840;7.258;2023-03-13T02:57:32;21.50;42.90
58447;DHT22;44240;51.840;7.258;2023-03-13T02:59:59;21.40;42.80
58447;DHT22;44240;51.840;7.258;2023-03-13T03:02:25;21.50;42.90
58447;DHT22;44240;51.840;7.258;2023-03-13T03:04:50;21.50;42.80
58447;DHT22;44240;51.840;7.258;2023-03-13T03:07:16;21.50;42.80
58447;DHT22;44240;51.840;7.258;2023-03-13T03:09:41;21.40;42.80
58447;DHT22;44240;51.840;7.258;2023-03-13T03:12:07;21.40;42.80
58447;DHT22;44240;51.840;7.258;2023-03-13T03:14:33;21.40;42.80
58447;DHT22;44240;51.840;7.258;2023-03-13T03:16:58;21.50;42.90
58447;DHT22;44240;51.840;7.258;2023-03-13T03:19:24;21.50;42.90
58447;DHT22;44240;51.840;7.258;2023-03-13T03:21:49;21.50;42.90
58447;DHT22;44240;51.840;7.258;2023-03-13T03:24:15;21.50;42.90
58447;DHT22;44240;51.840;7.258;2023-03-13T03:26:40;21.50;42.90
58447;DHT22;44240;51.840;7.258;2023-03-13T03:29:06;21.40;42.80
58447;DHT22;44240;51.840;7.258;2023-03-13T03:31:35;21.40;42.80
58447;DHT22;44240;51.840;7.258;2023-03-13T03:34:00;21.40;42.80
58447;DHT22;44240;51.840;7.258;2023-03-13T03:36:26;21.40;42.80
58447;DHT22;44240;51.840;7.258;2023-03-13T03:38:52;21.40;42.80
58447;DHT22;44240;51.840;7.258;2023-03-13T03:41:18;21.50;42.90
58447;DHT22;44240;51.840;7.258;2023-03-13T03:43:44;21.40;42.90
58447;DHT22;44240;51.840;7.258;2023-03-13T03:46:10;21.40;42.80
58447;DHT22;44240;51.840;7.258;2023-03-13T03:48:36;21.50;42.90
58447;DHT22;44240;51.840;7.258;2023-03-13T03:51:02;21.40;42.80
58447;DHT22;44240;51.840;7.258;2023-03-13T03:53:28;21.40;42.80
58447;DHT22;44240;51.840;7.258;2023-03-13T03:55:53;21.40;42.80
58447;DHT22;44240;51.840;7.258;2023-03-13T03:58:19;21.50;42.90
58447;DHT22;44240;51.840;7.258;2023-03-13T04:00:46;21.40;42.80
58447;DHT22;44240;51.840;7.258;2023-03-13T04:03:12;21.40;42.80
58447;DHT22;44240;51.840;7.258;2023-03-13T04:05:38;21.50;42.90
58447;DHT22;44240;51.840;7.258;2023-03-13T04:08:05;21.40;42.80
58447;DHT22;44240;51.840;7.258;2023-03-13T04:10:30;21.50;42.80
58447;DHT22;44240;51.840;7.258;2023-03-13T04:12:56;21.40;42.80
58447;DHT22;44240;51.840;7.258;2023-03-13T04:15:22;21.40;42.80
58447;DHT22;44240;51.840;7.258;2023-03-13T04:17:48;21.40;42.80
58447;DHT22;44240;51.840;7.258;2023-03-13T04:20:13;21.50;42.90
58447;DHT22;44240;51.840;7.258;2023-03-13T04:22:40;21.40;42.80
58447;DHT22;44240;51.840;7.258;2023-03-13T04:25:06;21.40;42.80
58447;DHT22;44240;51.840;7.258;2023-03-13T04:27:33;21.40;42.80
58447;DHT22;44240;51.840;7.258;2023-03-13T04:29:59;21.40;42.80
58447;DHT22;44240;51.840;7.258;2023-03-13T04:32:24;21.40;42.80
58447;DHT22;44240;51.840;7.258;2023-03-13T04:34:50;21.40;42.80
58447;DHT22;44240;51.840;7.258;2023-03-13T04:37:16;21.40;42.80
58447;DHT22;44240;51.840;7.258;2023-03-13T04:39:41;21.40;42.80
58447;DHT22;44240;51.840;7.258;2023-03-13T04:42:09;21.50;42.90
58447;DHT22;44240;51.840;7.258;2023-03-13T04:44:35;21.40;42.80
58447;DHT22;44240;51.840;7.258;2023-03-13T04:47:00;21.40;42.80
58447;DHT22;44240;51.840;7.258;2023-03-13T04:49:26;21.40;42.80
58447;DHT22;44240;51.840;7.258;2023-03-13T04:51:51;21.40;42.80
58447;DHT22;44240;51.840;7.258;2023-03-13T04:54:17;21.40;42.80
58447;DHT22;44240;51.840;7.258;2023-03-13T04:56:43;21.40;42.80
58447;DHT22;44240;51.840;7.258;2023-03-13T04:59:10;21.50;42.90
58447;DHT22;44240;51.840;7.258;2023-03-13T05:01:36;21.40;42.80
58447;DHT22;44240;51.840;7.258;2023-03-13T05:04:02;21.40;42.80
58447;DHT22;44240;51.840;7.258;2023-03-13T05:06:27;21.40;42.80
58447;DHT22;44240;51.840;7.258;2023-03-13T05:08:53;21.40;42.80
58447;DHT22;44240;51.840;7.258;2023-03-13T05:11:18;21.40;42.80
58447;DHT22;44240;51.840;7.258;2023-03-13T05:13:44;21.40;42.80
58447;DHT22;44240;51.840;7.258;2023-03-13T05:16:09;21.40;42.80
58447;DHT22;44240;51.840;7.258;2023-03-13T05:18:35;21.40;42.80
58447;DHT22;44240;51.840;7.258;2023-03-13T05:21:01;21.40;42.90
58447;DHT22;44240;51.840;7.258;2023-03-13T05:23:27;21.40;42.90
58447;DHT22;44240;51.840;7.258;2023-03-13T05:25:53;21.40;42.90
58447;DHT22;44240;51.840;7.258;2023-03-13T05:28:18;21.40;42.90
58447;DHT22;44240;51.840;7.258;2023-03-13T05:30:44;21.50;42.90
58447;DHT22;44240;51.840;7.258;2023-03-13T05:33:09;21.40;42.90
58447;DHT22;44240;51.840;7.258;2023-03-13T05:35:35;21.40;42.90
58447;DHT22;44240;51.840;7.258;2023-03-13T05:38:01;21.40;42.90
58447;DHT22;44240;51.840;7.258;2023-03-13T05:40:26;21.40;42.90
58447;DHT22;44240;51.840;7.258;2023-03-13T05:42:52;21.40;42.90
58447;DHT22;44240;51.840;7.258;2023-03-13T05:45:17;21.40;42.90
58447;DHT22;44240;51.840;7.258;2023-03-13T05:47:43;21.40;42.90
58447;DHT22;44240;51.840;7.258;2023-03-13T05:50:09;21.40;43.00
58447;DHT22;44240;51.840;7.258;2023-03-13T05:52:35;21.40;43.00
58447;DHT22;44240;51.840;7.258;2023-03-13T05:55:00;21.40;43.00
58447;DHT22;44240;51.840;7.258;2023-03-13T05:57:26;21.40;43.00
58447;DHT22;44240;51.840;7.258;2023-03-13T05:59:53;21.40;43.00
58447;DHT22;44240;51.840;7.258;2023-03-13T06:02:18;21.40;43.10
58447;DHT22;44240;51.840;7.258;2023-03-13T06:04:45;21.40;43.10
58447;DHT22;44240;51.840;7.258;2023-03-13T06:07:11;21.40;43.10
58447;DHT22;44240;51.840;7.258;2023-03-13T06:09:37;21.40;43.20
58447;DHT22;44240;51.840;7.258;2023-03-13T06:12:02;21.40;43.10
58447;DHT22;44240;51.840;7.258;2023-03-13T06:14:28;21.50;43.20
58447;DHT22;44240;51.840;7.258;2023-03-13T06:16:54;21.40;43.30
58447;DHT22;44240;51.840;7.258;2023-03-13T06:19:20;21.40;43.20
58447;DHT22;44240;51.840;7.258;2023-03-13T06:21:47;21.40;43.20
58447;DHT22;44240;51.840;7.258;2023-03-13T06:24:12;21.40;43.30
58447;DHT22;44240;51.840;7.258;2023-03-13T06:26:38;21.40;43.20
58447;DHT22;44240;51.840;7.258;2023-03-13T06:29:03;21.40;43.20
58447;DHT22;44240;51.840;7.258;2023-03-13T06:31:29;21.50;43.20
58447;DHT22;44240;51.840;7.258;2023-03-13T06:33:54;21.50;44.30
58447;DHT22;44240;51.840;7.258;2023-03-13T06:36:21;21.40;43.20
58447;DHT22;44240;51.840;7.258;2023-03-13T06:38:47;21.50;43.30
58447;DHT22;44240;51.840;7.258;2023-03-13T06:41:13;21.50;43.30
58447;DHT22;44240;51.840;7.258;2023-03-13T06:43:39;21.50;43.40
58447;DHT22;44240;51.840;7.258;2023-03-13T06:46:06;21.50;43.30
58447;DHT22;44240;51.840;7.258;2023-03-13T06:48:32;21.50;43.40
58447;DHT22;44240;51.840;7.258;2023-03-13T06:50:57;21.50;43.40
58447;DHT22;44240;51.840;7.258;2023-03-13T06:53:23;21.50;43.40
58447;DHT22;44240;51.840;7.258;2023-03-13T06:55:49;21.50;43.50
58447;DHT22;44240;51.840;7.258;2023-03-13T06:58:15;21.50;43.50
58447;DHT22;44240;51.840;7.258;2023-03-13T07:00:40;21.50;43.50
58447;DHT22;44240;51.840;7.258;2023-03-13T07:03:08;21.50;43.50
58447;DHT22;44240;51.840;7.258;2023-03-13T07:05:35;21.40;43.50
58447;DHT22;44240;51.840;7.258;2023-03-13T07:08:01;21.50;43.60
58447;DHT22;44240;51.840;7.258;2023-03-13T07:10:26;21.50;43.60
58447;DHT22;44240;51.840;7.258;2023-03-13T07:12:52;21.50;43.60
58447;DHT22;44240;51.840;7.258;2023-03-13T07:15:17;21.50;43.70
58447;DHT22;44240;51.840;7.258;2023-03-13T07:17:43;21.50;43.90
58447;DHT22;44240;51.840;7.258;2023-03-13T07:20:09;21.50;43.70
58447;DHT22;44240;51.840;7.258;2023-03-13T07:22:35;21.50;43.90
58447;DHT22;44240;51.840;7.258;2023-03-13T07:25:02;21.50;44.20
58447;DHT22;44240;51.840;7.258;2023-03-13T07:27:29;21.50;44.60
58447;DHT22;44240;51.840;7.258;2023-03-13T07:29:54;21.50;44.70
58447;DHT22;44240;51.840;7.258;2023-03-13T07:32:20;21.50;44.80
58447;DHT22;44240;51.840;7.258;2023-03-13T07:34:46;21.50;45.00
58447;DHT22;44240;51.840;7.258;2023-03-13T07:37:12;21.50;46.00
58447;DHT22;44240;51.840;7.258;2023-03-13T07:39:37;21.50;45.00
58447;DHT22;44240;51.840;7.258;2023-03-13T07:42:03;21.50;45.10
58447;DHT22;44240;51.840;7.258;2023-03-13T07:44:29;21.50;45.00
58447;DHT22;44240;51.840;7.258;2023-03-13T07:46:54;21.60;45.10
58447;DHT22;44240;51.840;7.258;2023-03-13T07:49:20;21.60;45.10
58447;DHT22;44240;51.840;7.258;2023-03-13T07:51:45;21.60;45.00
58447;DHT22;44240;51.840;7.258;2023-03-13T07:54:12;21.60;45.10
58447;DHT22;44240;51.840;7.258;2023-03-13T07:56:38;21.60;45.20
58447;DHT22;44240;51.840;7.258;2023-03-13T07:59:04;21.60;45.40
58447;DHT22;44240;51.840;7.258;2023-03-13T08:01:30;21.60;45.50
58447;DHT22;44240;51.840;7.258;2023-03-13T08:03:56;21.60;45.50
58447;DHT22;44240;51.840;7.258;2023-03-13T08:06:23;21.60;45.50
58447;DHT22;44240;51.840;7.258;2023-03-13T08:08:50;21.60;45.70
58447;DHT22;44240;51.840;7.258;2023-03-13T08:11:19;21.60;45.80
58447;DHT22;44240;51.840;7.258;2023-03-13T08:13:45;21.70;45.70
58447;DHT22;44240;51.840;7.258;2023-03-13T08:18:38;21.70;45.70
58447;DHT22;44240;51.840;7.258;2023-03-13T08:21:06;21.70;45.60
58447;DHT22;44240;51.840;7.258;2023-03-13T08:23:34;21.70;45.60
58447;DHT22;44240;51.840;7.258;2023-03-13T08:26:07;21.70;45.60
58447;DHT22;44240;51.840;7.258;2023-03-13T08:28:33;21.70;45.60
58447;DHT22;44240;51.840;7.258;2023-03-13T08:31:07;21.70;45.40
58447;DHT22;44240;51.840;7.258;2023-03-13T08:33:33;21.70;45.40
58447;DHT22;44240;51.840;7.258;2023-03-13T08:35:58;21.70;45.30
58447;DHT22;44240;51.840;7.258;2023-03-13T08:38:24;21.80;45.40
58447;DHT22;44240;51.840;7.258;2023-03-13T08:40:54;21.70;45.30
58447;DHT22;44240;51.840;7.258;2023-03-13T08:43:20;21.70;45.40
58447;DHT22;44240;51.840;7.258;2023-03-13T08:45:45;21.70;45.30
58447;DHT22;44240;51.840;7.258;2023-03-13T08:48:11;21.80;45.30
58447;DHT22;44240;51.840;7.258;2023-03-13T08:50:37;21.80;45.30
58447;DHT22;44240;51.840;7.258;2023-03-13T08:53:02;21.80;45.40
58447;DHT22;44240;51.840;7.258;2023-03-13T08:55:28;21.70;46.80
58447;DHT22;44240;51.840;7.258;2023-03-13T08:57:53;21.60;48.50
58447;DHT22;44240;51.840;7.258;2023-03-13T09:00:19;21.10;48.40
58447;DHT22;44240;51.840;7.258;2023-03-13T09:02:45;20.90;48.70
58447;DHT22;44240;51.840;7.258;2023-03-13T09:05:10;20.80;48.90
58447;DHT22;44240;51.840;7.258;2023-03-13T09:07:36;20.80;48.70
58447;DHT22;44240;51.840;7.258;2023-03-13T09:10:01;20.90;48.40
58447;DHT22;44240;51.840;7.258;2023-03-13T09:12:28;21.00;48.40
58447;DHT22;44240;51.840;7.258;2023-03-13T09:14:54;21.10;48.10
58447;DHT22;44240;51.840;7.258;2023-03-13T09:17:19;21.20;47.90
58447;DHT22;44240;51.840;7.258;2023-03-13T09:19:45;21.30;47.70
58447;DHT22;44240;51.840;7.258;2023-03-13T09:22:10;21.30;47.50
58447;DHT22;44240;51.840;7.258;2023-03-13T09:24:36;21.30;47.50
58447;DHT22;44240;51.840;7.258;2023-03-13T09:27:02;21.40;47.40
58447;DHT22;44240;51.840;7.258;2023-03-13T09:29:27;21.50;47.30
58447;DHT22;44240;51.840;7.258;2023-03-13T09:31:53;21.50;47.10
58447;DHT22;44240;51.840;7.258;2023-03-13T09:34:18;21.50;47.00
58447;DHT22;44240;51.840;7.258;2023-03-13T09:36:44;21.50;46.90
58447;DHT22;44240;51.840;7.258;2023-03-13T09:39:10;21.60;47.00
58447;DHT22;44240;51.840;7.258;2023-03-13T09:41:42;21.60;46.80
58447;DHT22;44240;51.840;7.258;2023-03-13T09:44:25;21.60;46.70
58447;DHT22;44240;51.840;7.258;2023-03-13T09:49:30;21.60;46.60
58447;DHT22;44240;51.840;7.258;2023-03-13T09:52:17;21.70;46.60
58447;DHT22;44240;51.840;7.258;2023-03-13T09:54:51;21.70;46.50
58447;DHT22;44240;51.840;7.258;2023-03-13T09:57:24;21.70;46.60
58447;DHT22;44240;51.840;7.258;2023-03-13T09:59:59;21.70;46.50
58447;DHT22;44240;51.840;7.258;2023-03-13T10:02:33;21.70;46.50
58447;DHT22;44240;51.840;7.258;2023-03-13T10:05:15;21.70;46.40
58447;DHT22;44240;51.840;7.258;2023-03-13T10:07:42;21.70;46.40
58447;DHT22;44240;51.840;7.258;2023-03-13T10:10:18;21.70;46.40
58447;DHT22;44240;51.840;7.258;2023-03-13T10:12:47;21.70;46.30
58447;DHT22;44240;51.840;7.258;2023-03-13T10:15:41;21.80;46.30
58447;DHT22;44240;51.840;7.258;2023-03-13T10:18:18;21.80;46.20
58447;DHT22;44240;51.840;7.258;2023-03-13T10:20:48;21.80;46.20
58447;DHT22;44240;51.840;7.258;2023-03-13T10:23:16;21.80;46.10
58447;DHT22;44240;51.840;7.258;2023-03-13T10:25:43;21.80;46.10
58447;DHT22;44240;51.840;7.258;2023-03-13T10:28:14;21.80;46.10
58447;DHT22;44240;51.840;7.258;2023-03-13T10:30:52;21.80;46.00
58447;DHT22;44240;51.840;7.258;2023-03-13T10:33:24;21.80;46.00
58447;DHT22;44240;51.840;7.258;2023-03-13T10:36:04;21.80;45.90
58447;DHT22;44240;51.840;7.258;2023-03-13T10:38:44;21.80;45.90
58447;DHT22;44240;51.840;7.258;2023-03-13T10:41:36;21.90;45.90
58447;DHT22;44240;51.840;7.258;2023-03-13T10:44:05;21.90;45.90
58447;DHT22;44240;51.840;7.258;2023-03-13T10:46:34;21.90;45.90
58447;DHT22;44240;51.840;7.258;2023-03-13T10:49:16;21.90;46.00
58447;DHT22;44240;51.840;7.258;2023-03-13T10:51:49;21.90;45.80
58447;DHT22;44240;51.840;7.258;2023-03-13T10:56:46;21.90;45.80
58447;DHT22;44240;51.840;7.258;2023-03-13T10:59:22;21.90;45.80
58447;DHT22;44240;51.840;7.258;2023-03-13T11:01:48;21.90;45.80
58447;DHT22;44240;51.840;7.258;2023-03-13T11:04:32;21.90;45.90
58447;DHT22;44240;51.840;7.258;2023-03-13T11:07:15;22.00;46.00
58447;DHT22;44240;51.840;7.258;2023-03-13T11:10:00;21.90;45.80
58447;DHT22;44240;51.840;7.258;2023-03-13T11:12:26;22.00;45.90
58447;DHT22;44240;51.840;7.258;2023-03-13T11:14:59;21.90;45.80
58447;DHT22;44240;51.840;7.258;2023-03-13T11:17:36;22.00;45.80
58447;DHT22;44240;51.840;7.258;2023-03-13T11:22:55;22.00;45.80
58447;DHT22;44240;51.840;7.258;2023-03-13T11:28:52;22.00;45.80
58447;DHT22;44240;51.840;7.258;2023-03-13T11:31:27;22.00;45.80
58447;DHT22;44240;51.840;7.258;2023-03-13T11:34:20;22.00;45.80
58447;DHT22;44240;51.840;7.258;2023-03-13T11:37:09;22.00;45.80
58447;DHT22;44240;51.840;7.258;2023-03-13T11:39:47;22.00;45.80
58447;DHT22;44240;51.840;7.258;2023-03-13T11:45:04;22.00;45.80
58447;DHT22;44240;51.840;7.258;2023-03-13T11:47:56;22.00;45.80
58447;DHT22;44240;51.840;7.258;2023-03-13T11:56:44;22.00;45.80
58447;DHT22;44240;51.840;7.258;2023-03-13T12:02:17;22.00;45.70
58447;DHT22;44240;51.840;7.258;2023-03-13T12:04:58;22.00;45.80
58447;DHT22;44240;51.840;7.258;2023-03-13T12:07:33;22.00;45.80
58447;DHT22;44240;51.840;7.258;2023-03-13T12:10:08;22.10;45.70
58447;DHT22;44240;51.840;7.258;2023-03-13T12:15:41;22.10;45.80
58447;DHT22;44240;51.840;7.258;2023-03-13T12:21:14;22.10;45.70
58447;DHT22;44240;51.840;7.258;2023-03-13T12:29:52;22.10;45.80
58447;DHT22;44240;51.840;7.258;2023-03-13T12:32:52;22.10;45.80
58447;DHT22;44240;51.840;7.258;2023-03-13T12:35:27;22.10;45.70
58447;DHT22;44240;51.840;7.258;2023-03-13T12:40:56;22.10;45.90
58447;DHT22;44240;51.840;7.258;2023-03-13T12:43:32;22.20;45.80
58447;DHT22;44240;51.840;7.258;2023-03-13T12:54:34;22.30;45.80
58447;DHT22;44240;51.840;7.258;2023-03-13T12:59:42;22.20;45.70
58447;DHT22;44240;51.840;7.258;2023-03-13T13:02:24;22.20;45.60
58447;DHT22;44240;51.840;7.258;2023-03-13T13:04:52;22.30;45.60
58447;DHT22;44240;51.840;7.258;2023-03-13T13:07:30;22.20;45.60
58447;DHT22;44240;51.840;7.258;2023-03-13T13:10:10;22.20;46.60
58447;DHT22;44240;51.840;7.258;2023-03-13T13:12:44;22.30;45.60
58447;DHT22;44240;51.840;7.258;2023-03-13T13:15:22;22.30;45.50
58447;DHT22;44240;51.840;7.258;2023-03-13T13:18:02;22.30;45.50
58447;DHT22;44240;51.840;7.258;2023-03-13T13:21:17;22.30;45.50
58447;DHT22;44240;51.840;7.258;2023-03-13T13:23:33;22.30;45.50
58447;DHT22;44240;51.840;7.258;2023-03-13T13:28:52;22.30;45.40
58447;DHT22;44240;51.840;7.258;2023-03-13T13:37:24;22.30;45.30
58447;DHT22;44240;51.840;7.258;2023-03-13T13:39:51;22.30;45.30
58447;DHT22;44240;51.840;7.258;2023-03-13T13:45:21;22.40;45.20
58447;DHT22;44240;51.840;7.258;2023-03-13T13:47:50;22.30;45.10
58447;DHT22;44240;51.840;7.258;2023-03-13T13:50:36;22.40;45.30
58447;DHT22;44240;51.840;7.258;2023-03-13T13:53:31;22.40;45.20
58447;DHT22;44240;51.840;7.258;2023-03-13T13:55:58;22.40;45.20
58447;DHT22;44240;51.840;7.258;2023-03-13T13:58:26;22.40;45.20
58447;DHT22;44240;51.840;7.258;2023-03-13T14:00:55;22.40;45.20
58447;DHT22;44240;51.840;7.258;2023-03-13T14:03:26;22.40;45.20
58447;DHT22;44240;51.840;7.258;2023-03-13T14:06:02;22.30;45.10
58447;DHT22;44240;51.840;7.258;2023-03-13T14:08:30;22.40;45.20
58447;DHT22;44240;51.840;7.258;2023-03-13T14:11:08;22.40;45.20
58447;DHT22;44240;51.840;7.258;2023-03-13T14:13:39;22.30;45.20
58447;DHT22;44240;51.840;7.258;2023-03-13T14:16:22;22.30;45.10
58447;DHT22;44240;51.840;7.258;2023-03-13T14:18:49;22.40;45.20
58447;DHT22;44240;51.840;7.258;2023-03-13T14:21:23;22.40;45.20
58447;DHT22;44240;51.840;7.258;2023-03-13T14:23:49;22.40;45.30
58447;DHT22;44240;51.840;7.258;2023-03-13T14:26:26;22.40;45.20
58447;DHT22;44240;51.840;7.258;2023-03-13T14:28:55;22.40;45.20
58447;DHT22;44240;51.840;7.258;2023-03-13T14:31:38;22.40;45.20
58447;DHT22;44240;51.840;7.258;2023-03-13T14:34:06;22.40;45.20
58447;DHT22;44240;51.840;7.258;2023-03-13T14:36:52;22.40;45.20
58447;DHT22;44240;51.840;7.258;2023-03-13T14:39:20;22.40;45.20
58447;DHT22;44240;51.840;7.258;2023-03-13T14:41:47;22.40;45.20
58447;DHT22;44240;51.840;7.258;2023-03-13T14:46:42;22.40;45.20
58447;DHT22;44240;51.840;7.258;2023-03-13T14:49:20;22.40;45.20
58447;DHT22;44240;51.840;7.258;2023-03-13T14:51:57;22.40;45.20
58447;DHT22;44240;51.840;7.258;2023-03-13T14:54:33;22.40;45.30
58447;DHT22;44240;51.840;7.258;2023-03-13T14:59:33;22.40;45.30
58447;DHT22;44240;51.840;7.258;2023-03-13T15:02:21;22.40;45.40
58447;DHT22;44240;51.840;7.258;2023-03-13T15:05:03;22.40;45.30
58447;DHT22;44240;51.840;7.258;2023-03-13T15:07:40;22.40;45.20
58447;DHT22;44240;51.840;7.258;2023-03-13T15:10:31;22.40;45.30
58447;DHT22;44240;51.840;7.258;2023-03-13T15:12:57;22.40;45.30
58447;DHT22;44240;51.840;7.258;2023-03-13T15:15:23;22.40;45.30
58447;DHT22;44240;51.840;7.258;2023-03-13T15:17:49;22.40;45.40
58447;DHT22;44240;51.840;7.258;2023-03-13T15:20:15;22.40;45.30
58447;DHT22;44240;51.840;7.258;2023-03-13T15:22:43;22.40;45.30
58447;DHT22;44240;51.840;7.258;2023-03-13T15:25:19;22.40;45.30
58447;DHT22;44240;51.840;7.258;2023-03-13T15:27:45;22.40;45.30
58447;DHT22;44240;51.840;7.258;2023-03-13T15:30:16;22.40;45.30
58447;DHT22;44240;51.840;7.258;2023-03-13T15:32:42;22.40;45.20
58447;DHT22;44240;51.840;7.258;2023-03-13T15:35:26;22.40;45.30
58447;DHT22;44240;51.840;7.258;2023-03-13T15:37:53;22.50;45.30
58447;DHT22;44240;51.840;7.258;2023-03-13T15:40:19;22.40;45.30
58447;DHT22;44240;51.840;7.258;2023-03-13T15:42:45;22.50;45.30
58447;DHT22;44240;51.840;7.258;2023-03-13T15:45:11;22.40;45.30
58447;DHT22;44240;51.840;7.258;2023-03-13T15:47:36;22.50;45.30
58447;DHT22;44240;51.840;7.258;2023-03-13T15:50:02;22.50;45.30
58447;DHT22;44240;51.840;7.258;2023-03-13T15:52:28;22.50;45.30
58447;DHT22;44240;51.840;7.258;2023-03-13T15:54:54;22.50;45.20
58447;DHT22;44240;51.840;7.258;2023-03-13T15:57:23;22.60;45.30
58447;DHT22;44240;51.840;7.258;2023-03-13T15:59:51;22.60;45.20
58447;DHT22;44240;51.840;7.258;2023-03-13T16:02:19;22.60;45.30
58447;DHT22;44240;51.840;7.258;2023-03-13T16:04:45;22.60;45.30
58447;DHT22;44240;51.840;7.258;2023-03-13T16:07:12;22.60;45.30
58447;DHT22;44240;51.840;7.258;2023-03-13T16:09:39;22.60;45.30
58447;DHT22;44240;51.840;7.258;2023-03-13T16:12:05;22.60;45.20
58447;DHT22;44240;51.840;7.258;2023-03-13T16:14:31;22.60;45.10
58447;DHT22;44240;51.840;7.258;2023-03-13T16:16:57;22.60;45.10
58447;DHT22;44240;51.840;7.258;2023-03-13T16:19:22;22.60;45.10
58447;DHT22;44240;51.840;7.258;2023-03-13T16:21:48;22.60;45.00
58447;DHT22;44240;51.840;7.258;2023-03-13T16:24:14;22.60;45.00
58447;DHT22;44240;51.840;7.258;2023-03-13T16:26:42;22.60;45.10
58447;DHT22;44240;51.840;7.258;2023-03-13T16:29:10;22.60;45.00
58447;DHT22;44240;51.840;7.258;2023-03-13T16:31:36;22.70;45.10
58447;DHT22;44240;51.840;7.258;2023-03-13T16:34:02;22.60;45.00
58447;DHT22;44240;51.840;7.258;2023-03-13T16:36:29;22.60;45.00
58447;DHT22;44240;51.840;7.258;2023-03-13T16:38:59;22.60;45.00
58447;DHT22;44240;51.840;7.258;2023-03-13T16:41:26;22.60;46.00
58447;DHT22;44240;51.840;7.258;2023-03-13T16:43:53;22.60;45.10
58447;DHT22;44240;51.840;7.258;2023-03-13T16:46:24;22.60;45.00
58447;DHT22;44240;51.840;7.258;2023-03-13T16:48:51;22.60;45.10
58447;DHT22;44240;51.840;7.258;2023-03-13T16:51:20;22.60;45.00
58447;DHT22;44240;51.840;7.258;2023-03-13T16:53:48;22.60;45.00
58447;DHT22;44240;51.840;7.258;2023-03-13T16:56:37;22.60;45.00
58447;DHT22;44240;51.840;7.258;2023-03-13T16:59:10;22.60;45.00